Time;durP1;ratioP1;P1;durP2;ratioP2;P2;SDS_P1;SDS_P2;PMS_P1;PMS_P2;Temp;Humidity;BMP_temperature;BMP_pressure;BME280_temperature;BME280_humidity;BME280_pressure;Samples;Min_cycle;Max_cycle;Signal;HPM_P1;HPM_P2
2022/02/03 00:00:07;;;;;;;;;;;;;;;27.84;20.56;100004.16;5055413;28;1898;-36
2022/02/03 00:07:54;;;;;;;;;;;;;;;27.85;20.40;99995.00;5077283;28;777;-36
2022/02/03 00:26:31;;;;;;;;;;;;;;;28.09;20.15;100004.38;5053928;28;633;-36
2022/02/03 00:28:56;;;;;;;;;;;;;;;28.15;20.38;100007.28;5070646;28;888;-35
2022/02/03 00:31:36;;;;;;;;;;;;;;;28.11;20.58;100007.72;5070643;28;822;-36
2022/02/03 00:34:08;;;;;;;;;;;;;;;27.98;20.47;100008.53;5076513;28;813;-36
2022/02/03 00:50:24;;;;;;;;;;;;;;;28.07;20.29;100008.34;5054811;28;596;-35
2022/02/03 00:52:49;;;;;;;;;;;;;;;28.14;20.17;100017.28;5076097;28;825;-36
2022/02/03 00:55:15;;;;;;;;;;;;;;;28.16;20.48;100023.31;5057454;28;782;-36
2022/02/03 00:57:42;;;;;;;;;;;;;;;28.09;20.08;100017.09;5076301;28;1905;-36
2022/02/03 01:00:11;;;;;;;;;;;;;;;28.03;20.55;100020.63;5070678;28;908;-35
2022/02/03 01:02:47;;;;;;;;;;;;;;;28.03;20.40;100018.72;5070212;28;814;-37
2022/02/03 01:05:13;;;;;;;;;;;;;;;28.02;20.37;100022.47;5075793;28;861;-36
2022/02/03 01:07:39;;;;;;;;;;;;;;;28.08;20.33;100024.34;5057807;28;849;-36
2022/02/03 01:10:15;;;;;;;;;;;;;;;28.26;19.96;100028.28;5058408;28;723;-35
2022/02/03 01:15:36;;;;;;;;;;;;;;;27.75;20.23;100033.25;5072101;28;860;-35
2022/02/03 01:18:44;;;;;;;;;;;;;;;27.22;21.34;100032.88;5075443;28;2008;-36
2022/02/03 01:34:51;;;;;;;;;;;;;;;26.30;22.26;100025.59;5059934;28;774;-36
2022/02/03 01:37:35;;;;;;;;;;;;;;;26.14;22.55;100013.25;5070208;28;877;-36
2022/02/03 01:45:49;;;;;;;;;;;;;;;25.64;23.13;100014.84;5074601;28;800;-36
2022/02/03 01:53:41;;;;;;;;;;;;;;;25.56;23.03;100014.91;5070015;28;627;-36
2022/02/03 01:56:07;;;;;;;;;;;;;;;25.61;23.16;100004.41;5075648;28;868;-34
2022/02/03 01:58:45;;;;;;;;;;;;;;;25.60;22.90;99994.69;5070638;28;1957;-35
2022/02/03 02:01:14;;;;;;;;;;;;;;;25.55;23.16;99984.47;5075242;28;818;-36
2022/02/03 02:03:46;;;;;;;;;;;;;;;25.40;23.32;99975.59;5057310;28;1164;-36
2022/02/03 02:06:30;;;;;;;;;;;;;;;26.35;22.26;99966.56;5056902;28;862;-36
2022/02/03 02:09:01;;;;;;;;;;;;;;;26.97;21.37;99965.88;5075639;28;793;-35
2022/02/03 02:11:59;;;;;;;;;;;;;;;27.00;21.39;99960.06;5074118;28;889;-36
2022/02/03 02:39:09;;;;;;;;;;;;;;;27.61;20.63;100011.56;5057166;28;1910;-36
2022/02/03 02:44:52;;;;;;;;;;;;;;;27.50;20.78;100018.41;5071774;28;902;-36
2022/02/03 02:47:27;;;;;;;;;;;;;;;27.72;20.44;100022.84;5078407;28;738;-35
2022/02/03 02:50:12;;;;;;;;;;;;;;;27.80;20.70;100030.78;5073245;28;861;-36
2022/02/03 02:52:44;;;;;;;;;;;;;;;27.75;20.82;100034.09;5060753;28;731;-36
2022/02/03 02:55:31;;;;;;;;;;;;;;;27.72;20.46;100041.78;5078797;28;853;-36
2022/02/03 02:58:16;;;;;;;;;;;;;;;27.76;20.61;100051.13;5073055;28;1953;-36
2022/02/03 03:31:14;;;;;;;;;;;;;;;28.03;19.95;100077.41;5074659;28;864;-34
2022/02/03 03:34:07;;;;;;;;;;;;;;;28.03;20.30;100085.50;5063620;28;1631;-35
2022/02/03 03:36:27;;;;;;;;;;;;;;;28.05;20.26;100075.28;5061983;28;1459;-35
2022/02/03 03:38:52;;;;;;;;;;;;;;;27.93;20.19;100075.06;5059656;28;2036;-35
2022/02/03 03:41:19;;;;;;;;;;;;;;;27.96;20.21;100082.78;5077398;28;809;-36
2022/02/03 03:43:48;;;;;;;;;;;;;;;27.97;20.12;100081.75;5076800;28;804;-36
2022/02/03 03:46:16;;;;;;;;;;;;;;;27.97;19.97;100085.28;5059575;28;754;-36
2022/02/03 03:48:56;;;;;;;;;;;;;;;28.02;19.95;100100.03;5076994;28;805;-36
2022/02/03 03:51:22;;;;;;;;;;;;;;;28.01;20.24;100095.69;5066919;28;1020;-38
2022/02/03 03:54:01;;;;;;;;;;;;;;;28.01;20.67;100104.59;5058684;28;853;-37
2022/02/03 03:56:36;;;;;;;;;;;;;;;27.90;20.65;100100.66;5060959;28;896;-37
2022/02/03 03:59:24;;;;;;;;;;;;;;;28.00;20.38;100113.75;5057005;28;1902;-38
2022/02/03 04:58:49;;;;;;;;;;;;;;;27.46;19.25;100191.91;5075996;28;706;-42
2022/02/03 05:01:29;;;;;;;;;;;;;;;27.70;19.49;100211.38;5055667;28;1266;-43
2022/02/03 05:07:09;;;;;;;;;;;;;;;28.12;18.82;100222.16;5075947;28;751;-44
2022/02/03 05:18:30;;;;;;;;;;;;;;;27.02;19.06;100257.66;5076090;28;1020;-42
2022/02/03 05:21:22;;;;;;;;;;;;;;;27.22;18.84;100259.69;5056362;28;1542;-43
2022/02/03 05:24:36;;;;;;;;;;;;;;;27.33;19.18;100263.69;5069278;28;1339;-43
2022/02/03 05:42:05;;;;;;;;;;;;;;;28.22;19.53;100292.94;5068408;28;663;-43
2022/02/03 05:48:42;;;;;;;;;;;;;;;28.17;19.62;100297.25;5070932;28;767;-43
2022/02/03 06:02:13;;;;;;;;;;;;;;;27.98;19.88;100338.34;5068928;28;762;-43
2022/02/03 06:15:35;;;;;;;;;;;;;;;28.03;20.02;100345.88;5076253;28;867;-42
2022/02/03 06:21:13;;;;;;;;;;;;;;;27.69;19.43;100361.88;5078585;28;631;-43
2022/02/03 06:23:42;;;;;;;;;;;;;;;27.56;19.48;100373.38;5078372;28;1405;-43
2022/02/03 06:28:56;;;;;;;;;;;;;;;28.15;19.37;100388.56;5073640;28;903;-43
2022/02/03 06:31:21;;;;;;;;;;;;;;;26.97;17.07;100397.72;5073329;28;1032;-43
2022/02/03 06:33:46;;;;;;;;;;;;;;;25.66;17.46;100394.44;5078482;28;797;-42
2022/02/03 06:36:12;;;;;;;;;;;;;;;25.01;17.20;100390.16;5078771;28;923;-43
2022/02/03 06:38:37;;;;;;;;;;;;;;;25.13;16.91;100395.16;5074994;28;1961;-43
2022/02/03 06:41:03;;;;;;;;;;;;;;;26.03;17.38;100391.91;5075118;28;1501;-42
2022/02/03 06:43:29;;;;;;;;;;;;;;;24.98;17.74;100385.16;5075418;28;1580;-43
2022/02/03 06:46:04;;;;;;;;;;;;;;;25.59;16.92;100396.97;5064038;28;1311;-42
2022/02/03 06:48:35;;;;;;;;;;;;;;;25.60;17.07;100387.06;5054958;28;1255;-42
2022/02/03 06:51:08;;;;;;;;;;;;;;;26.48;17.77;100389.25;5068513;28;1323;-35
2022/02/03 06:53:37;;;;;;;;;;;;;;;26.63;19.24;100397.31;5063751;28;1252;-38
2022/02/03 06:56:23;;;;;;;;;;;;;;;25.74;20.41;100396.25;5074410;28;1133;-36
2022/02/03 06:58:54;;;;;;;;;;;;;;;25.36;20.96;100397.03;5074599;28;1890;-35
2022/02/03 07:01:26;;;;;;;;;;;;;;;25.74;21.04;100407.84;5064247;28;1227;-35
2022/02/03 07:03:58;;;;;;;;;;;;;;;26.65;19.83;100408.78;5071283;28;1228;-38
2022/02/03 07:06:23;;;;;;;;;;;;;;;26.25;20.16;100408.19;5069354;28;1245;-33
2022/02/03 07:08:50;;;;;;;;;;;;;;;25.98;20.28;100405.94;5070744;28;825;-33
2022/02/03 07:11:19;;;;;;;;;;;;;;;25.63;20.35;100403.72;5077305;28;817;-41
2022/02/03 07:13:45;;;;;;;;;;;;;;;25.60;20.58;100414.00;5069913;28;1339;-43
2022/02/03 07:16:10;;;;;;;;;;;;;;;25.61;20.13;100426.47;5065064;28;1351;-42
2022/02/03 07:18:35;;;;;;;;;;;;;;;25.33;20.26;100424.28;5065236;28;1918;-44
2022/02/03 07:21:00;;;;;;;;;;;;;;;25.47;20.52;100430.75;5076976;28;1285;-43
2022/02/03 07:23:26;;;;;;;;;;;;;;;25.59;20.06;100432.00;5069596;28;1433;-42
2022/02/03 07:25:51;;;;;;;;;;;;;;;25.43;20.39;100435.66;5075641;28;1144;-43
2022/02/03 07:28:16;;;;;;;;;;;;;;;25.42;20.04;100442.06;5077245;28;858;-43
2022/02/03 07:30:42;;;;;;;;;;;;;;;25.21;20.64;100434.66;5071843;28;1195;-43
2022/02/03 07:33:08;;;;;;;;;;;;;;;25.11;21.06;100427.63;5068182;28;1238;-42
2022/02/03 07:35:34;;;;;;;;;;;;;;;25.26;21.02;100429.53;5068554;28;1287;-42
2022/02/03 07:38:02;;;;;;;;;;;;;;;25.32;21.21;100436.94;5068651;28;1901;-43
2022/02/03 07:40:28;;;;;;;;;;;;;;;25.59;20.65;100432.00;5069921;28;1433;-43
2022/02/03 07:42:54;;;;;;;;;;;;;;;26.58;19.74;100434.81;5068842;28;1584;-43
2022/02/03 07:45:20;;;;;;;;;;;;;;;27.24;19.02;100438.53;5064617;28;1252;-42
2022/02/03 07:47:47;;;;;;;;;;;;;;;27.50;18.90;100441.69;5063826;28;1255;-42
2022/02/03 07:50:12;;;;;;;;;;;;;;;27.60;18.61;100455.72;5068682;28;1391;-43
2022/02/03 07:52:37;;;;;;;;;;;;;;;27.38;18.92;100452.16;5071007;28;1512;-44
2022/02/03 07:55:03;;;;;;;;;;;;;;;27.72;18.88;100458.78;5064302;28;1410;-43
2022/02/03 07:57:28;;;;;;;;;;;;;;;27.55;19.11;100460.00;5059021;28;1607;-42
2022/02/03 07:59:55;;;;;;;;;;;;;;;27.24;19.54;100453.91;5070645;28;1914;-42
2022/02/03 08:02:20;;;;;;;;;;;;;;;26.98;19.89;100460.63;5064305;28;1359;-43
2022/02/03 08:04:47;;;;;;;;;;;;;;;27.59;19.05;100456.72;5059164;28;1304;-42
2022/02/03 08:07:16;;;;;;;;;;;;;;;27.80;18.75;100456.94;5071954;28;1553;-42
2022/02/03 08:09:54;;;;;;;;;;;;;;;28.16;18.38;100463.28;5070707;28;1309;-42
2022/02/03 08:12:23;;;;;;;;;;;;;;;28.28;18.30;100467.06;5074002;28;1347;-42
2022/02/03 08:14:50;;;;;;;;;;;;;;;28.19;18.14;100463.72;5069478;28;1429;-42
2022/02/03 08:17:27;;;;;;;;;;;;;;;28.66;17.88;100470.47;5066068;28;1327;-47
2022/02/03 08:20:03;;;;;;;;;;;;;;;28.88;17.54;100479.28;5063146;28;1911;-44
2022/02/03 08:22:36;;;;;;;;;;;;;;;28.82;17.86;100467.41;5067371;28;1117;-43
2022/02/03 08:32:29;;;;;;;;;;;;;;;28.19;18.57;100477.25;5067090;28;1505;-43
2022/02/03 08:37:21;;;;;;;;;;;;;;;28.40;18.29;100486.34;5068718;28;868;-42
2022/02/03 08:39:55;;;;;;;;;;;;;;;28.62;18.13;100491.69;5071261;28;1889;-43
2022/02/03 08:42:20;;;;;;;;;;;;;;;28.35;18.31;100496.91;5066512;28;1131;-43
2022/02/03 08:44:46;;;;;;;;;;;;;;;28.53;18.03;100501.81;5072488;28;1006;-43
2022/02/03 08:47:11;;;;;;;;;;;;;;;28.83;17.69;100509.69;5074466;28;830;-43
2022/02/03 08:49:41;;;;;;;;;;;;;;;28.63;18.10;100517.69;5069363;28;1188;-44
2022/02/03 08:52:15;;;;;;;;;;;;;;;28.67;18.20;100520.84;5069582;28;1176;-44
2022/02/03 08:54:47;;;;;;;;;;;;;;;28.81;18.17;100519.88;5071954;28;1663;-45
2022/02/03 08:57:19;;;;;;;;;;;;;;;28.92;18.06;100523.91;5078327;28;1467;-45
2022/02/03 09:57:05;;;;;;;;;;;;;;;29.31;17.47;100524.28;5070683;28;1300;-43
2022/02/03 09:59:48;;;;;;;;;;;;;;;29.18;17.98;100525.06;5072651;28;1902;-43
2022/02/03 10:02:21;;;;;;;;;;;;;;;29.16;17.76;100521.72;5072270;28;1382;-44
2022/02/03 10:04:55;;;;;;;;;;;;;;;28.93;18.10;100524.72;5074265;28;1149;-44
2022/02/03 10:07:24;;;;;;;;;;;;;;;28.98;18.06;100535.00;5077877;28;1191;-44
2022/02/03 10:09:50;;;;;;;;;;;;;;;28.88;18.25;100540.75;5074057;28;1279;-44
2022/02/03 10:12:15;;;;;;;;;;;;;;;29.00;18.33;100544.56;5073040;28;1422;-45
2022/02/03 10:14:41;;;;;;;;;;;;;;;29.42;17.85;100554.53;5067412;28;1511;-45
2022/02/03 10:17:07;;;;;;;;;;;;;;;29.13;17.92;100557.34;5076484;28;1016;-43
2022/02/03 10:19:37;;;;;;;;;;;;;;;29.49;17.34;100559.97;5076909;28;1965;-44
2022/02/03 10:22:10;;;;;;;;;;;;;;;29.16;17.71;100566.94;5077410;28;977;-44
2022/02/03 10:24:37;;;;;;;;;;;;;;;29.05;18.07;100558.34;5075257;28;1216;-44
2022/02/03 10:27:02;;;;;;;;;;;;;;;29.04;18.10;100564.81;5077302;28;1149;-42
2022/02/03 10:29:34;;;;;;;;;;;;;;;28.98;17.93;100572.91;5075928;28;1291;-42
2022/02/03 10:32:00;;;;;;;;;;;;;;;29.14;16.93;100577.97;5073518;28;1148;-44
2022/02/03 10:34:28;;;;;;;;;;;;;;;28.38;14.93;100568.75;5076962;28;1200;-41
2022/02/03 10:55:43;;;;;;;;;;;;;;;29.33;17.22;100594.50;5070613;28;1809;-42
2022/02/03 11:08:44;;;;;;;;;;;;;;;29.76;17.95;100600.75;5075193;28;1616;-43
2022/02/03 11:11:05;;;;;;;;;;;;;;;29.89;18.02;100603.50;5071925;28;1689;-43
2022/02/03 11:13:33;;;;;;;;;;;;;;;29.83;17.84;100601.56;5072031;28;1239;-42
2022/02/03 11:16:05;;;;;;;;;;;;;;;30.26;17.60;100597.69;5045713;28;1420;-41
2022/02/03 11:18:31;;;;;;;;;;;;;;;30.07;17.71;100615.59;5071056;28;1902;-42
2022/02/03 11:20:58;;;;;;;;;;;;;;;29.80;18.15;100613.69;5071049;28;1445;-42
2022/02/03 11:23:51;;;;;;;;;;;;;;;30.55;17.77;100620.03;5074120;28;1569;-42
2022/02/03 11:26:55;;;;;;;;;;;;;;;30.48;17.38;100627.34;5069690;28;1381;-43
2022/02/03 11:42:43;;;;;;;;;;;;;;;28.54;19.15;100657.75;5073100;28;1423;-41
2022/02/03 11:56:07;;;;;;;;;;;;;;;29.16;18.82;100661.75;5063433;28;1401;-43
2022/02/03 12:03:50;;;;;;;;;;;;;;;29.31;18.54;100678.69;5075865;28;1374;-45
2022/02/03 12:18:45;;;;;;;;;;;;;;;30.34;17.32;100707.06;5070580;28;1227;-43
2022/02/03 12:20:57;;;;;;;;;;;;;;;30.32;17.12;100715.44;5058736;28;1902;-43
2022/02/03 12:26:18;;;;;;;;;;;;;;;29.75;17.42;100708.34;5065537;28;1437;-46
2022/02/03 12:28:52;;;;;;;;;;;;;;;29.93;17.59;100717.78;5069479;28;1299;-42
2022/02/03 12:39:05;;;;;;;;;;;;;;;31.18;16.06;100731.13;5072546;28;1906;-46
2022/02/03 12:44:07;;;;;;;;;;;;;;;31.55;15.70;100738.81;5071757;28;816;-35
2022/02/03 12:46:33;;;;;;;;;;;;;;;32.20;15.08;100736.28;5069536;28;1442;-35
2022/02/03 12:48:58;;;;;;;;;;;;;;;32.48;14.54;100751.38;5069437;28;1324;-37
2022/02/03 12:51:24;;;;;;;;;;;;;;;32.87;14.38;100748.59;5072349;28;1129;-38
2022/02/03 12:53:49;;;;;;;;;;;;;;;33.10;14.45;100750.72;5071575;28;1191;-38
2022/02/03 12:56:15;;;;;;;;;;;;;;;33.70;13.69;100742.97;5069048;28;1272;-35
2022/02/03 12:58:44;;;;;;;;;;;;;;;33.54;13.61;100751.75;5069104;28;1960;-38
2022/02/03 13:01:16;;;;;;;;;;;;;;;33.30;13.89;100757.06;5069905;28;1208;-37
2022/02/03 13:03:50;;;;;;;;;;;;;;;33.31;13.31;100762.28;5056293;28;873;-38
2022/02/03 13:06:18;;;;;;;;;;;;;;;33.36;13.68;100764.31;5070824;28;1267;-35
2022/02/03 13:08:48;;;;;;;;;;;;;;;33.37;13.45;100776.88;5075974;28;1303;-36
2022/02/03 13:11:25;;;;;;;;;;;;;;;33.44;13.61;100771.34;5078558;28;1385;-40
2022/02/03 13:14:16;;;;;;;;;;;;;;;33.31;13.75;100775.91;5062742;28;841;-36
2022/02/03 13:16:53;;;;;;;;;;;;;;;33.25;13.56;100776.78;5073790;28;1405;-36
2022/02/03 13:19:26;;;;;;;;;;;;;;;33.43;13.86;100777.88;5038620;28;1898;-36
2022/02/03 13:25:03;;;;;;;;;;;;;;;31.85;14.87;100770.09;5073202;28;1176;-42
2022/02/03 13:27:45;;;;;;;;;;;;;;;32.72;14.63;100779.72;5062643;28;1255;-43
2022/02/03 13:30:28;;;;;;;;;;;;;;;32.81;14.09;100776.72;5054459;28;975;-42
2022/02/03 13:33:00;;;;;;;;;;;;;;;32.26;14.75;100770.78;5051069;28;1220;-42
2022/02/03 13:35:30;;;;;;;;;;;;;;;31.83;15.10;100772.22;5073296;28;1098;-42
2022/02/03 13:38:00;;;;;;;;;;;;;;;30.42;16.22;100777.44;5073707;28;1090;-42
2022/02/03 13:40:27;;;;;;;;;;;;;;;30.10;16.43;100772.53;5065648;28;1902;-42
2022/02/03 13:43:07;;;;;;;;;;;;;;;30.26;16.16;100771.34;5073229;28;1158;-42
2022/02/03 13:45:33;;;;;;;;;;;;;;;31.16;15.53;100772.09;5066963;28;1050;-43
2022/02/03 13:47:58;;;;;;;;;;;;;;;30.63;15.62;100770.19;5068424;28;1152;-43
2022/02/03 13:50:27;;;;;;;;;;;;;;;30.70;15.59;100775.63;5056582;28;870;-42
2022/02/03 13:53:07;;;;;;;;;;;;;;;30.85;15.42;100770.00;5069878;28;1069;-42
2022/02/03 14:28:08;;;;;;;;;;;;;;;26.46;20.68;100797.75;5069315;28;1275;-41
2022/02/03 14:30:37;;;;;;;;;;;;;;;27.38;19.17;100798.75;5062989;28;1540;-42
2022/02/03 14:33:02;;;;;;;;;;;;;;;27.85;19.07;100811.31;5067342;28;1308;-42
2022/02/03 14:35:29;;;;;;;;;;;;;;;27.79;19.01;100814.75;5073478;28;1220;-43
2022/02/03 14:42:53;;;;;;;;;;;;;;;28.13;18.71;100815.22;5073415;28;1287;-41
2022/02/03 14:45:19;;;;;;;;;;;;;;;28.33;18.52;100823.59;5071846;28;1623;-41
2022/02/03 14:47:44;;;;;;;;;;;;;;;27.95;18.70;100824.53;5068426;28;1440;-42
2022/02/03 14:50:11;;;;;;;;;;;;;;;27.87;18.88;100825.47;5055145;28;1356;-41
2022/02/03 14:52:57;;;;;;;;;;;;;;;28.28;18.40;100828.72;5071391;28;1391;-41
2022/02/03 14:58:16;;;;;;;;;;;;;;;28.16;18.73;100831.06;5077031;28;1070;-42
2022/02/03 15:00:45;;;;;;;;;;;;;;;28.33;18.44;100824.44;5072446;28;1066;-42
2022/02/03 15:03:10;;;;;;;;;;;;;;;28.30;18.13;100823.94;5070961;28;1150;-41
2022/02/03 15:05:37;;;;;;;;;;;;;;;28.17;18.53;100825.47;5081117;28;1099;-41
2022/02/03 15:08:05;;;;;;;;;;;;;;;28.13;18.78;100817.91;5074111;28;836;-41
2022/02/03 15:15:27;;;;;;;;;;;;;;;27.99;18.76;100840.19;5075648;28;958;-42
2022/02/03 15:17:53;;;;;;;;;;;;;;;28.65;18.09;100850.38;5077404;28;1163;-42
2022/02/03 15:20:18;;;;;;;;;;;;;;;28.19;18.32;100853.16;5077389;28;2386;-43
2022/02/03 15:22:43;;;;;;;;;;;;;;;28.17;18.37;100867.88;5076837;28;869;-42
2022/02/03 15:25:11;;;;;;;;;;;;;;;27.90;18.40;100851.28;5077834;28;1270;-42
2022/02/03 15:27:36;;;;;;;;;;;;;;;27.47;19.18;100855.41;5077806;28;798;-42
2022/02/03 15:30:03;;;;;;;;;;;;;;;27.76;19.48;100856.50;5076898;28;850;-43
2022/02/03 15:32:29;;;;;;;;;;;;;;;28.04;18.69;100865.84;5077471;28;876;-42
2022/02/03 15:34:55;;;;;;;;;;;;;;;27.98;18.74;100862.88;5073182;28;727;-42
2022/02/03 15:37:21;;;;;;;;;;;;;;;27.61;19.02;100872.69;5077236;28;814;-44
2022/02/03 15:39:48;;;;;;;;;;;;;;;27.15;19.50;100874.41;5077149;28;1972;-43
2022/02/03 15:42:19;;;;;;;;;;;;;;;26.69;20.11;100876.03;5077602;28;825;-42
2022/02/03 15:44:47;;;;;;;;;;;;;;;26.42;20.14;100878.16;5071610;28;1636;-42
2022/02/03 15:47:27;;;;;;;;;;;;;;;26.37;20.51;100886.78;5075721;28;842;-42
2022/02/03 16:17:37;;;;;;;;;;;;;;;27.31;20.18;100926.63;5092402;28;1139;-43
2022/02/03 16:20:19;;;;;;;;;;;;;;;27.31;20.23;100932.03;5092049;28;1079;-42
2022/02/03 16:22:54;;;;;;;;;;;;;;;27.38;19.88;100938.38;5092929;28;817;-42
2022/02/03 16:54:48;;;;;;;;;;;;;;;26.88;16.52;100979.13;5089523;28;1317;-43
2022/02/03 16:57:17;;;;;;;;;;;;;;;27.24;16.88;100975.94;5091801;28;1318;-43
2022/02/03 16:59:53;;;;;;;;;;;;;;;27.36;16.80;100986.34;5083420;28;1226;-44
2022/02/03 17:02:20;;;;;;;;;;;;;;;27.25;16.79;100988.44;5091235;28;1314;-42
2022/02/03 17:04:45;;;;;;;;;;;;;;;27.07;15.49;100987.88;5091328;28;1918;-43
2022/02/03 17:07:10;;;;;;;;;;;;;;;27.13;15.96;100987.16;5092040;28;826;-43
2022/02/03 17:09:38;;;;;;;;;;;;;;;27.05;16.71;100993.44;5074117;28;1296;-43
2022/02/03 17:12:03;;;;;;;;;;;;;;;27.06;16.74;100991.59;5091883;28;805;-43
2022/02/03 17:14:30;;;;;;;;;;;;;;;27.23;17.11;101003.13;5070159;28;1185;-41
2022/02/03 17:16:55;;;;;;;;;;;;;;;27.19;17.46;101009.91;5082468;28;1210;-43
2022/02/03 17:19:22;;;;;;;;;;;;;;;27.18;17.41;101000.97;5078369;28;830;-42
2022/02/03 17:21:47;;;;;;;;;;;;;;;27.33;17.39;101005.59;5077998;28;1014;-43
2022/02/03 17:24:12;;;;;;;;;;;;;;;27.14;17.39;100996.94;5076924;28;1314;-43
2022/02/03 17:26:50;;;;;;;;;;;;;;;27.10;17.75;100999.16;5077654;28;1901;-43
2022/02/03 17:29:29;;;;;;;;;;;;;;;26.72;18.18;101004.34;5071521;28;1116;-43
2022/02/03 18:17:37;;;;;;;;;;;;;;;27.80;18.69;101017.31;5077231;28;630;-43
2022/02/03 18:31:11;;;;;;;;;;;;;;;27.58;19.08;101035.16;5075652;28;1235;-43
2022/02/03 18:34:54;;;;;;;;;;;;;;;27.48;19.13;101032.69;5071743;28;1175;-43
2022/02/03 18:36:49;;;;;;;;;;;;;;;27.44;19.44;101045.75;5053932;28;1444;-43
2022/02/03 18:55:26;;;;;;;;;;;;;;;27.80;18.97;101052.44;5076683;28;786;-43
2022/02/03 18:58:03;;;;;;;;;;;;;;;28.04;18.49;101049.72;5070144;28;1237;-43
2022/02/03 19:09:41;;;;;;;;;;;;;;;27.77;19.07;101060.91;5076044;28;647;-42
2022/02/03 19:14:51;;;;;;;;;;;;;;;28.18;18.86;101067.00;5010461;28;1075;-43
2022/02/03 19:25:49;;;;;;;;;;;;;;;26.37;19.45;101080.13;5075193;28;1894;-43
2022/02/03 19:28:41;;;;;;;;;;;;;;;26.71;19.28;101083.63;5070722;28;1316;-42
2022/02/03 20:00:14;;;;;;;;;;;;;;;27.36;18.77;101097.09;5075509;28;636;-43
2022/02/03 20:01:59;;;;;;;;;;;;;;;27.57;18.89;101112.69;5075207;28;1313;-44
2022/02/03 20:07:01;;;;;;;;;;;;;;;27.84;18.88;101107.00;5074302;28;1914;-43
2022/02/03 20:12:10;;;;;;;;;;;;;;;27.60;18.63;101101.53;5069626;28;608;-42
2022/02/03 20:14:36;;;;;;;;;;;;;;;27.64;18.89;101102.03;5063713;28;830;-43
2022/02/03 20:17:01;;;;;;;;;;;;;;;27.22;18.96;101104.06;5075155;28;903;-42
2022/02/03 20:19:27;;;;;;;;;;;;;;;26.93;19.14;101103.63;5075359;28;798;-42
2022/02/03 20:21:53;;;;;;;;;;;;;;;27.00;19.34;101118.13;5075093;28;825;-43
2022/02/03 20:24:18;;;;;;;;;;;;;;;26.84;19.49;101116.31;5075450;28;777;-43
2022/02/03 20:26:44;;;;;;;;;;;;;;;26.82;19.61;101120.19;5074510;28;1964;-43
2022/02/03 20:29:10;;;;;;;;;;;;;;;26.78;19.44;101130.50;5071189;28;991;-43
2022/02/03 20:31:35;;;;;;;;;;;;;;;26.80;19.63;101133.88;5073934;28;802;-43
2022/02/03 20:34:01;;;;;;;;;;;;;;;26.85;19.39;101136.91;5075335;28;866;-43
2022/02/03 20:36:26;;;;;;;;;;;;;;;26.81;19.73;101140.13;5074643;28;801;-43
2022/02/03 20:38:51;;;;;;;;;;;;;;;27.09;19.51;101143.25;5073927;28;801;-44
2022/02/03 20:41:20;;;;;;;;;;;;;;;27.01;19.60;101146.84;5072012;28;813;-43
2022/02/03 20:43:45;;;;;;;;;;;;;;;26.80;19.38;101144.66;5074074;28;812;-43
2022/02/03 20:46:10;;;;;;;;;;;;;;;26.29;20.19;101149.19;5071554;28;1972;-43
2022/02/03 20:48:45;;;;;;;;;;;;;;;26.74;19.75;101156.97;5075267;28;825;-42
2022/02/03 20:51:10;;;;;;;;;;;;;;;26.98;19.78;101154.41;5075481;28;786;-42
2022/02/03 20:53:36;;;;;;;;;;;;;;;26.92;19.62;101149.69;5077468;28;1473;-43
2022/02/03 20:56:01;;;;;;;;;;;;;;;27.05;19.54;101157.28;5078635;28;730;-43
2022/02/03 20:58:26;;;;;;;;;;;;;;;27.34;19.44;101159.38;5078105;28;778;-43
2022/02/03 21:05:48;;;;;;;;;;;;;;;27.39;19.20;101162.41;5073870;28;1913;-43
2022/02/03 21:08:17;;;;;;;;;;;;;;;27.47;19.21;101158.84;5078017;28;738;-43
2022/02/03 21:10:42;;;;;;;;;;;;;;;27.30;19.27;101160.75;5078509;28;746;-43
2022/02/03 21:13:08;;;;;;;;;;;;;;;27.34;19.52;101167.50;5078168;28;881;-43
2022/02/03 21:15:36;;;;;;;;;;;;;;;27.50;19.42;101165.75;5071029;28;962;-42
2022/02/03 21:18:06;;;;;;;;;;;;;;;27.07;19.46;101164.22;5077762;28;822;-42
2022/02/03 21:20:31;;;;;;;;;;;;;;;26.82;20.06;101152.59;5078113;28;916;-42
2022/02/03 21:22:57;;;;;;;;;;;;;;;26.80;20.14;101151.91;5060223;28;1324;-43
2022/02/03 21:25:46;;;;;;;;;;;;;;;26.71;20.18;101149.22;5077198;28;1898;-43
2022/02/03 21:28:15;;;;;;;;;;;;;;;26.86;19.72;101149.38;5077282;28;1395;-42
2022/02/03 21:30:40;;;;;;;;;;;;;;;26.71;20.19;101141.13;5069623;28;814;-42
2022/02/03 21:33:09;;;;;;;;;;;;;;;26.79;20.10;101137.59;5078217;28;837;-43
2022/02/03 21:35:35;;;;;;;;;;;;;;;26.80;20.14;101123.06;5077057;28;786;-43
2022/02/03 21:38:00;;;;;;;;;;;;;;;27.09;19.41;101131.66;5076339;28;1190;-43
2022/02/03 21:40:26;;;;;;;;;;;;;;;27.23;19.77;101155.22;5076227;28;1262;-45
2022/02/03 21:42:51;;;;;;;;;;;;;;;27.74;18.93;101164.00;5075037;28;1203;-44
2022/02/03 21:45:18;;;;;;;;;;;;;;;27.82;18.70;101174.75;5076021;28;1910;-43
2022/02/03 21:47:44;;;;;;;;;;;;;;;27.91;18.58;101183.66;5077794;28;778;-43
2022/02/03 21:50:09;;;;;;;;;;;;;;;28.40;18.54;101184.38;5077405;28;869;-43
2022/02/03 21:52:37;;;;;;;;;;;;;;;28.17;18.59;101182.47;5078202;28;950;-43
2022/02/03 21:55:03;;;;;;;;;;;;;;;28.06;18.80;101181.03;5077401;28;1550;-43
2022/02/03 21:57:29;;;;;;;;;;;;;;;27.90;18.76;101189.22;5055704;28;1363;-44
2022/02/03 21:59:55;;;;;;;;;;;;;;;27.86;18.78;101186.88;5077180;28;818;-43
2022/02/03 22:02:20;;;;;;;;;;;;;;;27.86;18.72;101180.66;5077487;28;790;-43
2022/02/03 22:04:46;;;;;;;;;;;;;;;27.75;18.86;101188.13;5077183;28;1906;-43
2022/02/03 22:07:12;;;;;;;;;;;;;;;27.83;18.82;101189.09;5077455;28;904;-43
2022/02/03 22:09:39;;;;;;;;;;;;;;;27.84;19.18;101190.81;5071142;28;845;-42
2022/02/03 22:12:05;;;;;;;;;;;;;;;27.77;19.41;101187.97;5076806;28;943;-43
2022/02/03 22:14:30;;;;;;;;;;;;;;;27.68;19.50;101187.16;5071317;28;821;-43
2022/02/03 22:16:58;;;;;;;;;;;;;;;27.68;19.57;101188.97;5076572;28;813;-43
2022/02/03 22:19:24;;;;;;;;;;;;;;;27.68;19.18;101195.25;5076476;28;857;-43
2022/02/03 22:22:03;;;;;;;;;;;;;;;27.44;19.40;101197.03;5074708;28;830;-47
2022/02/03 22:24:42;;;;;;;;;;;;;;;27.21;19.76;101207.75;5076096;28;834;-44
2022/02/03 22:27:39;;;;;;;;;;;;;;;27.16;19.27;101202.00;5075495;28;1147;-43
2022/02/03 22:45:16;;;;;;;;;;;;;;;27.83;19.19;101216.97;5008715;28;1495;-45
2022/02/03 22:49:39;;;;;;;;;;;;;;;28.09;18.94;101212.28;5055561;28;899;-45
2022/02/03 22:52:04;;;;;;;;;;;;;;;28.15;19.01;101208.88;5077065;28;814;-47
2022/02/03 22:54:30;;;;;;;;;;;;;;;28.05;19.27;101205.53;5076678;28;891;-45
2022/02/03 22:56:55;;;;;;;;;;;;;;;27.73;19.66;101205.53;5076409;28;885;-44
2022/02/03 23:02:04;;;;;;;;;;;;;;;28.03;19.39;101202.19;5071811;28;698;-46
2022/02/03 23:04:31;;;;;;;;;;;;;;;28.02;18.98;101206.75;5075722;28;1021;-45
2022/02/03 23:07:05;;;;;;;;;;;;;;;28.19;18.99;101209.34;5076604;28;1976;-45
2022/02/03 23:09:48;;;;;;;;;;;;;;;28.29;18.91;101207.25;5076308;28;948;-45
2022/02/03 23:17:45;;;;;;;;;;;;;;;28.23;19.04;101208.81;5075509;28;675;-45
2022/02/03 23:20:44;;;;;;;;;;;;;;;28.23;19.05;101224.19;5059820;28;831;-45
2022/02/03 23:23:09;;;;;;;;;;;;;;;28.26;18.92;101231.94;5076375;28;854;-45
2022/02/03 23:25:36;;;;;;;;;;;;;;;28.19;18.95;101239.09;5070973;28;1894;-45
2022/02/03 23:30:27;;;;;;;;;;;;;;;28.75;18.71;101238.03;5073974;28;863;-45
2022/02/03 23:32:54;;;;;;;;;;;;;;;28.86;18.46;101236.78;5075737;28;790;-46
2022/02/03 23:35:23;;;;;;;;;;;;;;;28.79;18.65;101233.97;5076051;28;802;-46
